sensor_id;sensor_type;location;lat;lon;timestamp;P1;durP1;ratioP1;P2;durP2;ratioP2
35424;SDS011;21537;48.226;16.400;2022-10-31T00:01:21;32.78;;;18.20;;
35424;SDS011;21537;48.226;16.400;2022-10-31T00:03:55;27.35;;;16.08;;
35424;SDS011;21537;48.226;16.400;2022-10-31T00:06:21;27.70;;;15.40;;
35424;SDS011;21537;48.226;16.400;2022-10-31T00:08:55;28.77;;;16.00;;
35424;SDS011;21537;48.226;16.400;2022-10-31T00:11:22;29.38;;;15.98;;
35424;SDS011;21537;48.226;16.400;2022-10-31T00:13:48;25.73;;;15.45;;
35424;SDS011;21537;48.226;16.400;2022-10-31T00:16:15;23.95;;;14.27;;
35424;SDS011;21537;48.226;16.400;2022-10-31T00:18:41;26.42;;;14.45;;
35424;SDS011;21537;48.226;16.400;2022-10-31T00:21:07;24.67;;;14.35;;
35424;SDS011;21537;48.226;16.400;2022-10-31T00:23:33;23.75;;;15.02;;
35424;SDS011;21537;48.226;16.400;2022-10-31T00:25:59;27.33;;;14.32;;
35424;SDS011;21537;48.226;16.400;2022-10-31T00:28:29;30.20;;;16.27;;
35424;SDS011;21537;48.226;16.400;2022-10-31T00:31:01;32.28;;;15.00;;
35424;SDS011;21537;48.226;16.400;2022-10-31T00:33:29;29.30;;;16.45;;
35424;SDS011;21537;48.226;16.400;2022-10-31T00:35:55;24.58;;;14.07;;
35424;SDS011;21537;48.226;16.400;2022-10-31T00:38:21;24.45;;;13.93;;
35424;SDS011;21537;48.226;16.400;2022-10-31T00:40:47;26.73;;;15.30;;
35424;SDS011;21537;48.226;16.400;2022-10-31T00:43:13;25.58;;;14.27;;
35424;SDS011;21537;48.226;16.400;2022-10-31T00:45:39;24.67;;;14.65;;
35424;SDS011;21537;48.226;16.400;2022-10-31T00:48:06;24.98;;;15.18;;
35424;SDS011;21537;48.226;16.400;2022-10-31T00:50:32;25.30;;;14.23;;
35424;SDS011;21537;48.226;16.400;2022-10-31T00:52:58;24.58;;;14.48;;
35424;SDS011;21537;48.226;16.400;2022-10-31T00:55:24;28.58;;;15.25;;
35424;SDS011;21537;48.226;16.400;2022-10-31T00:57:51;25.85;;;15.32;;
35424;SDS011;21537;48.226;16.400;2022-10-31T01:00:16;26.77;;;15.93;;
35424;SDS011;21537;48.226;16.400;2022-10-31T01:02:43;30.85;;;15.70;;
35424;SDS011;21537;48.226;16.400;2022-10-31T01:05:08;25.70;;;14.80;;
35424;SDS011;21537;48.226;16.400;2022-10-31T01:07:37;25.85;;;14.35;;
35424;SDS011;21537;48.226;16.400;2022-10-31T01:10:07;26.23;;;14.30;;
35424;SDS011;21537;48.226;16.400;2022-10-31T01:12:38;27.50;;;14.95;;
35424;SDS011;21537;48.226;16.400;2022-10-31T01:15:09;24.85;;;14.02;;
35424;SDS011;21537;48.226;16.400;2022-10-31T01:17:36;27.58;;;15.38;;
35424;SDS011;21537;48.226;16.400;2022-10-31T01:20:03;25.95;;;14.52;;
35424;SDS011;21537;48.226;16.400;2022-10-31T01:22:30;26.40;;;15.23;;
35424;SDS011;21537;48.226;16.400;2022-10-31T01:24:59;26.23;;;14.48;;
35424;SDS011;21537;48.226;16.400;2022-10-31T01:27:25;28.13;;;14.82;;
35424;SDS011;21537;48.226;16.400;2022-10-31T01:29:51;25.10;;;12.77;;
35424;SDS011;21537;48.226;16.400;2022-10-31T01:32:17;25.30;;;14.18;;
35424;SDS011;21537;48.226;16.400;2022-10-31T01:34:44;20.95;;;12.85;;
35424;SDS011;21537;48.226;16.400;2022-10-31T01:37:12;21.60;;;12.38;;
35424;SDS011;21537;48.226;16.400;2022-10-31T01:39:38;22.48;;;13.50;;
35424;SDS011;21537;48.226;16.400;2022-10-31T01:42:03;19.85;;;12.35;;
35424;SDS011;21537;48.226;16.400;2022-10-31T01:47:04;23.15;;;13.77;;
35424;SDS011;21537;48.226;16.400;2022-10-31T01:49:37;20.90;;;12.38;;
35424;SDS011;21537;48.226;16.400;2022-10-31T01:52:09;22.10;;;12.95;;
35424;SDS011;21537;48.226;16.400;2022-10-31T01:54:58;21.58;;;12.35;;
35424;SDS011;21537;48.226;16.400;2022-10-31T01:57:30;24.33;;;12.82;;
35424;SDS011;21537;48.226;16.400;2022-10-31T01:59:59;19.77;;;11.73;;
35424;SDS011;21537;48.226;16.400;2022-10-31T02:02:38;24.70;;;12.27;;
35424;SDS011;21537;48.226;16.400;2022-10-31T02:05:05;20.52;;;12.57;;
35424;SDS011;21537;48.226;16.400;2022-10-31T02:07:37;21.25;;;12.48;;
35424;SDS011;21537;48.226;16.400;2022-10-31T02:10:10;25.08;;;12.95;;
35424;SDS011;21537;48.226;16.400;2022-10-31T02:12:37;23.08;;;13.70;;
35424;SDS011;21537;48.226;16.400;2022-10-31T02:15:04;25.83;;;13.45;;
35424;SDS011;21537;48.226;16.400;2022-10-31T02:17:31;25.95;;;12.38;;
35424;SDS011;21537;48.226;16.400;2022-10-31T02:26:00;21.10;;;12.90;;
35424;SDS011;21537;48.226;16.400;2022-10-31T02:28:26;22.48;;;13.35;;
35424;SDS011;21537;48.226;16.400;2022-10-31T02:33:53;21.52;;;12.93;;
35424;SDS011;21537;48.226;16.400;2022-10-31T02:36:36;25.13;;;14.30;;
35424;SDS011;21537;48.226;16.400;2022-10-31T02:39:33;26.50;;;14.82;;
35424;SDS011;21537;48.226;16.400;2022-10-31T02:42:18;26.60;;;14.05;;
35424;SDS011;21537;48.226;16.400;2022-10-31T02:44:50;24.55;;;13.90;;
35424;SDS011;21537;48.226;16.400;2022-10-31T02:47:24;29.02;;;13.82;;
35424;SDS011;21537;48.226;16.400;2022-10-31T02:50:03;24.27;;;12.95;;
35424;SDS011;21537;48.226;16.400;2022-10-31T02:52:38;25.10;;;12.90;;
35424;SDS011;21537;48.226;16.400;2022-10-31T02:58:19;20.38;;;12.40;;
35424;SDS011;21537;48.226;16.400;2022-10-31T03:06:34;22.13;;;11.85;;
35424;SDS011;21537;48.226;16.400;2022-10-31T03:09:31;18.55;;;11.23;;
35424;SDS011;21537;48.226;16.400;2022-10-31T03:12:13;22.30;;;11.73;;
35424;SDS011;21537;48.226;16.400;2022-10-31T03:15:23;22.63;;;12.40;;
35424;SDS011;21537;48.226;16.400;2022-10-31T03:18:01;20.60;;;11.98;;
35424;SDS011;21537;48.226;16.400;2022-10-31T03:21:02;21.85;;;12.10;;
35424;SDS011;21537;48.226;16.400;2022-10-31T03:23:34;22.75;;;12.02;;
35424;SDS011;21537;48.226;16.400;2022-10-31T03:26:03;19.00;;;12.00;;
35424;SDS011;21537;48.226;16.400;2022-10-31T03:28:34;17.70;;;10.85;;
35424;SDS011;21537;48.226;16.400;2022-10-31T03:31:06;18.40;;;11.23;;
35424;SDS011;21537;48.226;16.400;2022-10-31T03:33:37;20.85;;;11.68;;
35424;SDS011;21537;48.226;16.400;2022-10-31T03:36:07;23.83;;;12.35;;
35424;SDS011;21537;48.226;16.400;2022-10-31T03:38:36;19.10;;;11.30;;
35424;SDS011;21537;48.226;16.400;2022-10-31T03:41:05;19.50;;;11.63;;
35424;SDS011;21537;48.226;16.400;2022-10-31T03:43:37;17.10;;;9.68;;
35424;SDS011;21537;48.226;16.400;2022-10-31T03:46:07;18.83;;;8.65;;
35424;SDS011;21537;48.226;16.400;2022-10-31T03:48:33;14.00;;;8.43;;
35424;SDS011;21537;48.226;16.400;2022-10-31T03:51:03;15.77;;;9.13;;
35424;SDS011;21537;48.226;16.400;2022-10-31T03:58:57;15.02;;;7.10;;
35424;SDS011;21537;48.226;16.400;2022-10-31T04:01:43;14.43;;;8.07;;
35424;SDS011;21537;48.226;16.400;2022-10-31T04:04:12;14.70;;;8.30;;
35424;SDS011;21537;48.226;16.400;2022-10-31T04:06:41;13.75;;;8.13;;
35424;SDS011;21537;48.226;16.400;2022-10-31T04:09:09;13.40;;;7.88;;
35424;SDS011;21537;48.226;16.400;2022-10-31T04:11:37;13.60;;;8.30;;
35424;SDS011;21537;48.226;16.400;2022-10-31T04:14:27;11.13;;;7.45;;
35424;SDS011;21537;48.226;16.400;2022-10-31T04:16:57;13.50;;;8.23;;
35424;SDS011;21537;48.226;16.400;2022-10-31T04:19:32;13.20;;;8.05;;
35424;SDS011;21537;48.226;16.400;2022-10-31T04:21:58;12.38;;;7.88;;
35424;SDS011;21537;48.226;16.400;2022-10-31T04:24:24;16.15;;;9.27;;
35424;SDS011;21537;48.226;16.400;2022-10-31T04:26:49;16.75;;;8.80;;
35424;SDS011;21537;48.226;16.400;2022-10-31T04:29:18;13.20;;;8.57;;
35424;SDS011;21537;48.226;16.400;2022-10-31T04:31:44;16.70;;;10.20;;
35424;SDS011;21537;48.226;16.400;2022-10-31T04:34:09;13.63;;;8.30;;
35424;SDS011;21537;48.226;16.400;2022-10-31T04:36:35;14.13;;;8.98;;
35424;SDS011;21537;48.226;16.400;2022-10-31T04:39:01;15.20;;;8.80;;
35424;SDS011;21537;48.226;16.400;2022-10-31T04:41:38;15.70;;;8.77;;
35424;SDS011;21537;48.226;16.400;2022-10-31T04:44:12;11.90;;;7.80;;
35424;SDS011;21537;48.226;16.400;2022-10-31T04:46:38;12.30;;;7.78;;
35424;SDS011;21537;48.226;16.400;2022-10-31T04:49:03;12.30;;;6.80;;
35424;SDS011;21537;48.226;16.400;2022-10-31T04:51:29;10.93;;;6.95;;
35424;SDS011;21537;48.226;16.400;2022-10-31T04:53:55;9.23;;;6.18;;
35424;SDS011;21537;48.226;16.400;2022-10-31T04:56:47;9.63;;;5.90;;
35424;SDS011;21537;48.226;16.400;2022-10-31T04:59:18;14.88;;;7.65;;
35424;SDS011;21537;48.226;16.400;2022-10-31T05:01:49;10.88;;;7.35;;
35424;SDS011;21537;48.226;16.400;2022-10-31T05:04:19;12.18;;;7.65;;
35424;SDS011;21537;48.226;16.400;2022-10-31T05:06:46;12.52;;;7.55;;
35424;SDS011;21537;48.226;16.400;2022-10-31T05:09:12;10.38;;;6.50;;
35424;SDS011;21537;48.226;16.400;2022-10-31T05:11:38;10.95;;;6.85;;
35424;SDS011;21537;48.226;16.400;2022-10-31T05:14:20;11.00;;;6.90;;
35424;SDS011;21537;48.226;16.400;2022-10-31T05:17:10;13.05;;;7.13;;
35424;SDS011;21537;48.226;16.400;2022-10-31T05:19:55;10.00;;;6.82;;
35424;SDS011;21537;48.226;16.400;2022-10-31T05:22:51;13.63;;;7.20;;
35424;SDS011;21537;48.226;16.400;2022-10-31T05:25:19;12.05;;;7.82;;
35424;SDS011;21537;48.226;16.400;2022-10-31T05:27:48;11.68;;;7.65;;
35424;SDS011;21537;48.226;16.400;2022-10-31T05:30:16;14.52;;;8.13;;
35424;SDS011;21537;48.226;16.400;2022-10-31T05:32:46;16.35;;;8.15;;
35424;SDS011;21537;48.226;16.400;2022-10-31T05:35:32;16.75;;;8.85;;
35424;SDS011;21537;48.226;16.400;2022-10-31T05:38:16;16.75;;;8.73;;
35424;SDS011;21537;48.226;16.400;2022-10-31T05:40:43;15.60;;;8.65;;
35424;SDS011;21537;48.226;16.400;2022-10-31T05:43:08;15.07;;;7.72;;
35424;SDS011;21537;48.226;16.400;2022-10-31T05:45:34;15.98;;;7.82;;
35424;SDS011;21537;48.226;16.400;2022-10-31T05:50:49;13.82;;;7.60;;
35424;SDS011;21537;48.226;16.400;2022-10-31T05:58:14;14.75;;;8.27;;
35424;SDS011;21537;48.226;16.400;2022-10-31T06:01:03;15.50;;;7.35;;
35424;SDS011;21537;48.226;16.400;2022-10-31T06:03:34;16.63;;;6.53;;
35424;SDS011;21537;48.226;16.400;2022-10-31T06:06:07;12.63;;;6.65;;
35424;SDS011;21537;48.226;16.400;2022-10-31T06:08:41;14.85;;;6.78;;
35424;SDS011;21537;48.226;16.400;2022-10-31T06:11:16;15.55;;;7.30;;
35424;SDS011;21537;48.226;16.400;2022-10-31T06:14:01;11.30;;;6.43;;
35424;SDS011;21537;48.226;16.400;2022-10-31T06:16:44;11.60;;;5.88;;
35424;SDS011;21537;48.226;16.400;2022-10-31T06:19:29;13.82;;;6.72;;
35424;SDS011;21537;48.226;16.400;2022-10-31T06:21:54;12.93;;;5.88;;
35424;SDS011;21537;48.226;16.400;2022-10-31T06:24:21;8.73;;;5.45;;
35424;SDS011;21537;48.226;16.400;2022-10-31T06:27:00;11.52;;;6.13;;
35424;SDS011;21537;48.226;16.400;2022-10-31T06:29:26;18.38;;;6.47;;
35424;SDS011;21537;48.226;16.400;2022-10-31T06:32:01;12.00;;;6.22;;
35424;SDS011;21537;48.226;16.400;2022-10-31T06:34:28;12.85;;;6.00;;
35424;SDS011;21537;48.226;16.400;2022-10-31T06:36:54;13.50;;;6.93;;
35424;SDS011;21537;48.226;16.400;2022-10-31T06:39:23;11.82;;;7.03;;
35424;SDS011;21537;48.226;16.400;2022-10-31T06:41:49;17.42;;;6.45;;
35424;SDS011;21537;48.226;16.400;2022-10-31T06:44:18;14.65;;;6.78;;
35424;SDS011;21537;48.226;16.400;2022-10-31T06:46:53;12.05;;;6.57;;
35424;SDS011;21537;48.226;16.400;2022-10-31T06:49:52;13.88;;;6.57;;
35424;SDS011;21537;48.226;16.400;2022-10-31T06:52:23;12.57;;;6.60;;
35424;SDS011;21537;48.226;16.400;2022-10-31T06:54:50;13.70;;;7.53;;
35424;SDS011;21537;48.226;16.400;2022-10-31T06:57:17;14.50;;;7.10;;
35424;SDS011;21537;48.226;16.400;2022-10-31T06:59:43;11.85;;;6.50;;
35424;SDS011;21537;48.226;16.400;2022-10-31T07:02:09;11.38;;;6.38;;
35424;SDS011;21537;48.226;16.400;2022-10-31T07:04:37;15.07;;;7.15;;
35424;SDS011;21537;48.226;16.400;2022-10-31T07:07:03;13.65;;;7.68;;
35424;SDS011;21537;48.226;16.400;2022-10-31T07:09:30;12.30;;;7.07;;
35424;SDS011;21537;48.226;16.400;2022-10-31T07:12:00;12.02;;;6.60;;
35424;SDS011;21537;48.226;16.400;2022-10-31T07:14:27;13.43;;;7.07;;
35424;SDS011;21537;48.226;16.400;2022-10-31T07:16:53;12.15;;;6.78;;
35424;SDS011;21537;48.226;16.400;2022-10-31T07:19:25;14.27;;;7.43;;
35424;SDS011;21537;48.226;16.400;2022-10-31T07:21:51;18.40;;;8.00;;
35424;SDS011;21537;48.226;16.400;2022-10-31T07:24:17;15.80;;;7.95;;
35424;SDS011;21537;48.226;16.400;2022-10-31T07:27:03;14.82;;;7.78;;
35424;SDS011;21537;48.226;16.400;2022-10-31T07:29:29;13.63;;;7.70;;
35424;SDS011;21537;48.226;16.400;2022-10-31T07:31:56;20.70;;;11.32;;
35424;SDS011;21537;48.226;16.400;2022-10-31T07:34:25;17.48;;;8.93;;
35424;SDS011;21537;48.226;16.400;2022-10-31T07:37:30;20.98;;;9.05;;
35424;SDS011;21537;48.226;16.400;2022-10-31T07:39:58;16.50;;;8.48;;
35424;SDS011;21537;48.226;16.400;2022-10-31T07:42:28;20.73;;;10.20;;
35424;SDS011;21537;48.226;16.400;2022-10-31T07:44:54;24.20;;;10.32;;
35424;SDS011;21537;48.226;16.400;2022-10-31T07:47:47;19.92;;;9.00;;
35424;SDS011;21537;48.226;16.400;2022-10-31T07:50:46;20.08;;;9.20;;
35424;SDS011;21537;48.226;16.400;2022-10-31T07:53:38;21.52;;;10.52;;
35424;SDS011;21537;48.226;16.400;2022-10-31T07:56:37;23.42;;;10.73;;
35424;SDS011;21537;48.226;16.400;2022-10-31T08:03:02;21.58;;;9.38;;
35424;SDS011;21537;48.226;16.400;2022-10-31T08:06:00;22.00;;;10.57;;
35424;SDS011;21537;48.226;16.400;2022-10-31T08:08:52;21.23;;;9.80;;
35424;SDS011;21537;48.226;16.400;2022-10-31T08:11:44;17.65;;;9.48;;
35424;SDS011;21537;48.226;16.400;2022-10-31T08:17:02;19.70;;;10.10;;
35424;SDS011;21537;48.226;16.400;2022-10-31T08:19:42;22.92;;;10.32;;
35424;SDS011;21537;48.226;16.400;2022-10-31T08:22:34;22.40;;;10.93;;
35424;SDS011;21537;48.226;16.400;2022-10-31T08:28:46;22.02;;;10.80;;
35424;SDS011;21537;48.226;16.400;2022-10-31T08:31:22;27.70;;;12.88;;
35424;SDS011;21537;48.226;16.400;2022-10-31T08:34:23;27.48;;;13.40;;
35424;SDS011;21537;48.226;16.400;2022-10-31T08:37:21;26.92;;;12.80;;
35424;SDS011;21537;48.226;16.400;2022-10-31T08:40:28;26.35;;;13.68;;
35424;SDS011;21537;48.226;16.400;2022-10-31T08:43:08;31.75;;;15.05;;
35424;SDS011;21537;48.226;16.400;2022-10-31T08:46:00;27.70;;;14.15;;
35424;SDS011;21537;48.226;16.400;2022-10-31T08:48:27;28.15;;;14.63;;
35424;SDS011;21537;48.226;16.400;2022-10-31T08:50:56;35.15;;;15.63;;
35424;SDS011;21537;48.226;16.400;2022-10-31T08:53:27;31.33;;;15.95;;
35424;SDS011;21537;48.226;16.400;2022-10-31T08:56:12;34.05;;;16.00;;
35424;SDS011;21537;48.226;16.400;2022-10-31T08:58:38;31.73;;;16.40;;
35424;SDS011;21537;48.226;16.400;2022-10-31T09:01:04;38.60;;;15.48;;
35424;SDS011;21537;48.226;16.400;2022-10-31T09:03:35;37.58;;;17.15;;
35424;SDS011;21537;48.226;16.400;2022-10-31T09:06:11;34.92;;;16.20;;
35424;SDS011;21537;48.226;16.400;2022-10-31T09:08:47;41.15;;;18.05;;
35424;SDS011;21537;48.226;16.400;2022-10-31T09:11:24;37.47;;;18.33;;
35424;SDS011;21537;48.226;16.400;2022-10-31T09:14:14;34.88;;;16.70;;
35424;SDS011;21537;48.226;16.400;2022-10-31T09:17:18;43.33;;;19.42;;
35424;SDS011;21537;48.226;16.400;2022-10-31T09:20:21;37.28;;;18.35;;
35424;SDS011;21537;48.226;16.400;2022-10-31T09:22:47;39.22;;;18.00;;
35424;SDS011;21537;48.226;16.400;2022-10-31T09:25:13;40.70;;;18.27;;
35424;SDS011;21537;48.226;16.400;2022-10-31T09:27:42;43.67;;;20.45;;
35424;SDS011;21537;48.226;16.400;2022-10-31T09:30:08;40.00;;;18.35;;
35424;SDS011;21537;48.226;16.400;2022-10-31T09:32:35;40.58;;;19.35;;
35424;SDS011;21537;48.226;16.400;2022-10-31T09:35:04;40.83;;;18.92;;
35424;SDS011;21537;48.226;16.400;2022-10-31T09:37:31;40.97;;;19.63;;
35424;SDS011;21537;48.226;16.400;2022-10-31T09:39:57;40.33;;;19.23;;
35424;SDS011;21537;48.226;16.400;2022-10-31T09:42:38;36.33;;;18.05;;
35424;SDS011;21537;48.226;16.400;2022-10-31T09:45:18;39.50;;;19.85;;
35424;SDS011;21537;48.226;16.400;2022-10-31T09:51:28;49.53;;;21.50;;
35424;SDS011;21537;48.226;16.400;2022-10-31T09:54:57;51.95;;;24.23;;
35424;SDS011;21537;48.226;16.400;2022-10-31T09:58:07;42.63;;;22.88;;
35424;SDS011;21537;48.226;16.400;2022-10-31T10:00:39;48.57;;;22.57;;
35424;SDS011;21537;48.226;16.400;2022-10-31T10:03:16;42.25;;;20.45;;
35424;SDS011;21537;48.226;16.400;2022-10-31T10:08:45;49.47;;;24.08;;
35424;SDS011;21537;48.226;16.400;2022-10-31T10:26:23;49.65;;;22.83;;
35424;SDS011;21537;48.226;16.400;2022-10-31T10:28:57;46.03;;;22.08;;
35424;SDS011;21537;48.226;16.400;2022-10-31T10:31:28;48.63;;;21.30;;
35424;SDS011;21537;48.226;16.400;2022-10-31T10:37:32;46.05;;;22.45;;
35424;SDS011;21537;48.226;16.400;2022-10-31T10:40:14;50.45;;;24.13;;
35424;SDS011;21537;48.226;16.400;2022-10-31T10:42:50;50.72;;;24.35;;
35424;SDS011;21537;48.226;16.400;2022-10-31T10:45:47;53.83;;;24.30;;
35424;SDS011;21537;48.226;16.400;2022-10-31T10:51:44;58.70;;;26.80;;
35424;SDS011;21537;48.226;16.400;2022-10-31T10:59:47;59.17;;;26.52;;
35424;SDS011;21537;48.226;16.400;2022-10-31T11:02:17;58.63;;;26.67;;
35424;SDS011;21537;48.226;16.400;2022-10-31T11:04:52;59.38;;;26.35;;
35424;SDS011;21537;48.226;16.400;2022-10-31T11:07:20;62.17;;;27.42;;
35424;SDS011;21537;48.226;16.400;2022-10-31T11:09:46;63.85;;;29.17;;
35424;SDS011;21537;48.226;16.400;2022-10-31T11:12:18;61.58;;;28.20;;
35424;SDS011;21537;48.226;16.400;2022-10-31T11:14:52;63.90;;;27.67;;
35424;SDS011;21537;48.226;16.400;2022-10-31T11:17:33;61.85;;;27.92;;
35424;SDS011;21537;48.226;16.400;2022-10-31T11:22:42;65.32;;;29.02;;
35424;SDS011;21537;48.226;16.400;2022-10-31T11:28:30;55.10;;;26.38;;
35424;SDS011;21537;48.226;16.400;2022-10-31T11:31:12;53.55;;;26.45;;
35424;SDS011;21537;48.226;16.400;2022-10-31T11:33:47;65.78;;;27.98;;
35424;SDS011;21537;48.226;16.400;2022-10-31T11:36:24;67.82;;;30.48;;
35424;SDS011;21537;48.226;16.400;2022-10-31T11:38:55;59.10;;;27.83;;
35424;SDS011;21537;48.226;16.400;2022-10-31T11:41:25;71.90;;;32.33;;
35424;SDS011;21537;48.226;16.400;2022-10-31T11:43:59;72.60;;;30.92;;
35424;SDS011;21537;48.226;16.400;2022-10-31T11:48:59;59.35;;;29.30;;
35424;SDS011;21537;48.226;16.400;2022-10-31T11:51:28;59.30;;;26.73;;
35424;SDS011;21537;48.226;16.400;2022-10-31T11:53:58;67.53;;;28.25;;
35424;SDS011;21537;48.226;16.400;2022-10-31T11:56:24;55.45;;;26.52;;
35424;SDS011;21537;48.226;16.400;2022-10-31T11:58:58;61.63;;;28.63;;
35424;SDS011;21537;48.226;16.400;2022-10-31T12:01:28;68.00;;;29.00;;
35424;SDS011;21537;48.226;16.400;2022-10-31T12:06:24;62.22;;;29.13;;
35424;SDS011;21537;48.226;16.400;2022-10-31T12:08:57;76.93;;;31.27;;
35424;SDS011;21537;48.226;16.400;2022-10-31T12:17:03;66.50;;;28.63;;
35424;SDS011;21537;48.226;16.400;2022-10-31T12:26:16;65.88;;;29.88;;
35424;SDS011;21537;48.226;16.400;2022-10-31T12:36:46;73.05;;;34.15;;
35424;SDS011;21537;48.226;16.400;2022-10-31T13:02:33;96.05;;;39.50;;
35424;SDS011;21537;48.226;16.400;2022-10-31T13:07:03;104.05;;;39.78;;
35424;SDS011;21537;48.226;16.400;2022-10-31T13:09:54;97.07;;;40.15;;
35424;SDS011;21537;48.226;16.400;2022-10-31T13:12:25;107.93;;;40.58;;
35424;SDS011;21537;48.226;16.400;2022-10-31T13:14:54;94.93;;;38.85;;
35424;SDS011;21537;48.226;16.400;2022-10-31T13:17:39;104.13;;;40.65;;
35424;SDS011;21537;48.226;16.400;2022-10-31T13:23:05;104.10;;;39.92;;
35424;SDS011;21537;48.226;16.400;2022-10-31T13:25:48;98.25;;;38.78;;
35424;SDS011;21537;48.226;16.400;2022-10-31T13:31:08;99.40;;;38.42;;
35424;SDS011;21537;48.226;16.400;2022-10-31T13:44:00;96.43;;;38.95;;
35424;SDS011;21537;48.226;16.400;2022-10-31T13:49:04;102.50;;;39.40;;
35424;SDS011;21537;48.226;16.400;2022-10-31T13:51:48;104.33;;;40.17;;
35424;SDS011;21537;48.226;16.400;2022-10-31T13:54:21;109.07;;;40.55;;
35424;SDS011;21537;48.226;16.400;2022-10-31T13:56:52;119.05;;;43.10;;
35424;SDS011;21537;48.226;16.400;2022-10-31T13:59:19;106.40;;;42.15;;
35424;SDS011;21537;48.226;16.400;2022-10-31T14:02:12;103.90;;;42.58;;
35424;SDS011;21537;48.226;16.400;2022-10-31T14:04:51;107.47;;;40.67;;
35424;SDS011;21537;48.226;16.400;2022-10-31T14:07:21;97.38;;;40.70;;
35424;SDS011;21537;48.226;16.400;2022-10-31T14:14:51;98.55;;;40.75;;
35424;SDS011;21537;48.226;16.400;2022-10-31T14:17:24;112.10;;;43.97;;
35424;SDS011;21537;48.226;16.400;2022-10-31T14:19:56;105.82;;;42.75;;
35424;SDS011;21537;48.226;16.400;2022-10-31T14:22:29;116.40;;;44.08;;
35424;SDS011;21537;48.226;16.400;2022-10-31T14:24:57;135.38;;;48.67;;
35424;SDS011;21537;48.226;16.400;2022-10-31T14:29:51;113.60;;;44.30;;
35424;SDS011;21537;48.226;16.400;2022-10-31T14:32:22;113.25;;;46.28;;
35424;SDS011;21537;48.226;16.400;2022-10-31T14:51:10;113.60;;;44.40;;
35424;SDS011;21537;48.226;16.400;2022-10-31T14:53:47;114.85;;;45.03;;
35424;SDS011;21537;48.226;16.400;2022-10-31T14:56:28;123.50;;;46.88;;
35424;SDS011;21537;48.226;16.400;2022-10-31T14:59:04;119.60;;;44.50;;
35424;SDS011;21537;48.226;16.400;2022-10-31T15:01:34;123.10;;;46.45;;
35424;SDS011;21537;48.226;16.400;2022-10-31T15:04:34;116.05;;;43.25;;
35424;SDS011;21537;48.226;16.400;2022-10-31T15:09:44;126.63;;;46.22;;
35424;SDS011;21537;48.226;16.400;2022-10-31T15:12:24;118.43;;;46.63;;
35424;SDS011;21537;48.226;16.400;2022-10-31T15:14:53;122.22;;;46.97;;
35424;SDS011;21537;48.226;16.400;2022-10-31T15:17:20;118.90;;;46.50;;
35424;SDS011;21537;48.226;16.400;2022-10-31T15:19:46;127.10;;;48.72;;
35424;SDS011;21537;48.226;16.400;2022-10-31T15:22:14;113.95;;;46.78;;
35424;SDS011;21537;48.226;16.400;2022-10-31T15:24:42;112.05;;;46.25;;
35424;SDS011;21537;48.226;16.400;2022-10-31T15:27:12;127.18;;;49.70;;
35424;SDS011;21537;48.226;16.400;2022-10-31T15:29:50;122.97;;;48.08;;
35424;SDS011;21537;48.226;16.400;2022-10-31T15:32:28;115.90;;;46.60;;
35424;SDS011;21537;48.226;16.400;2022-10-31T15:34:55;113.25;;;45.53;;
35424;SDS011;21537;48.226;16.400;2022-10-31T15:37:22;111.20;;;44.38;;
35424;SDS011;21537;48.226;16.400;2022-10-31T15:39:50;105.68;;;45.17;;
35424;SDS011;21537;48.226;16.400;2022-10-31T15:45:19;107.50;;;45.47;;
35424;SDS011;21537;48.226;16.400;2022-10-31T15:50:54;105.72;;;44.70;;
35424;SDS011;21537;48.226;16.400;2022-10-31T15:56:00;101.65;;;42.88;;
35424;SDS011;21537;48.226;16.400;2022-10-31T15:58:29;96.20;;;43.78;;
35424;SDS011;21537;48.226;16.400;2022-10-31T16:01:02;89.32;;;39.42;;
35424;SDS011;21537;48.226;16.400;2022-10-31T16:03:31;86.18;;;38.45;;
35424;SDS011;21537;48.226;16.400;2022-10-31T16:06:02;93.75;;;38.55;;
35424;SDS011;21537;48.226;16.400;2022-10-31T16:13:52;89.43;;;37.72;;
35424;SDS011;21537;48.226;16.400;2022-10-31T16:16:21;87.75;;;36.88;;
35424;SDS011;21537;48.226;16.400;2022-10-31T16:18:47;81.78;;;34.47;;
35424;SDS011;21537;48.226;16.400;2022-10-31T16:21:15;79.05;;;33.67;;
35424;SDS011;21537;48.226;16.400;2022-10-31T16:23:47;84.25;;;33.78;;
35424;SDS011;21537;48.226;16.400;2022-10-31T16:26:17;81.38;;;33.85;;
35424;SDS011;21537;48.226;16.400;2022-10-31T16:28:51;82.80;;;33.95;;
35424;SDS011;21537;48.226;16.400;2022-10-31T16:34:18;80.43;;;33.17;;
35424;SDS011;21537;48.226;16.400;2022-10-31T16:36:46;80.45;;;32.55;;
35424;SDS011;21537;48.226;16.400;2022-10-31T16:39:11;75.50;;;32.58;;
35424;SDS011;21537;48.226;16.400;2022-10-31T16:41:40;84.57;;;35.78;;
35424;SDS011;21537;48.226;16.400;2022-10-31T16:44:17;84.38;;;35.35;;
35424;SDS011;21537;48.226;16.400;2022-10-31T16:49:41;71.05;;;32.78;;
35424;SDS011;21537;48.226;16.400;2022-10-31T16:52:12;76.55;;;30.48;;
35424;SDS011;21537;48.226;16.400;2022-10-31T16:54:37;78.18;;;31.45;;
35424;SDS011;21537;48.226;16.400;2022-10-31T16:57:04;77.93;;;32.58;;
35424;SDS011;21537;48.226;16.400;2022-10-31T16:59:31;71.63;;;30.48;;
35424;SDS011;21537;48.226;16.400;2022-10-31T17:02:01;73.05;;;32.63;;
35424;SDS011;21537;48.226;16.400;2022-10-31T17:04:28;81.20;;;32.97;;
35424;SDS011;21537;48.226;16.400;2022-10-31T17:06:54;84.47;;;35.08;;
35424;SDS011;21537;48.226;16.400;2022-10-31T17:09:20;74.05;;;32.35;;
35424;SDS011;21537;48.226;16.400;2022-10-31T17:11:47;77.68;;;29.92;;
35424;SDS011;21537;48.226;16.400;2022-10-31T17:14:16;78.30;;;31.23;;
35424;SDS011;21537;48.226;16.400;2022-10-31T17:16:43;73.90;;;30.25;;
35424;SDS011;21537;48.226;16.400;2022-10-31T17:19:09;75.32;;;31.00;;
35424;SDS011;21537;48.226;16.400;2022-10-31T17:21:36;77.55;;;30.90;;
35424;SDS011;21537;48.226;16.400;2022-10-31T17:24:03;70.80;;;30.88;;
35424;SDS011;21537;48.226;16.400;2022-10-31T17:26:30;63.45;;;27.77;;
35424;SDS011;21537;48.226;16.400;2022-10-31T17:28:56;70.00;;;29.42;;
35424;SDS011;21537;48.226;16.400;2022-10-31T17:31:27;68.00;;;30.42;;
35424;SDS011;21537;48.226;16.400;2022-10-31T17:33:55;66.97;;;31.77;;
35424;SDS011;21537;48.226;16.400;2022-10-31T17:36:22;68.55;;;30.35;;
35424;SDS011;21537;48.226;16.400;2022-10-31T17:38:48;58.45;;;26.83;;
35424;SDS011;21537;48.226;16.400;2022-10-31T17:41:16;62.30;;;27.60;;
35424;SDS011;21537;48.226;16.400;2022-10-31T17:43:45;57.60;;;27.05;;
35424;SDS011;21537;48.226;16.400;2022-10-31T17:46:15;69.35;;;30.23;;
35424;SDS011;21537;48.226;16.400;2022-10-31T17:48:41;57.83;;;25.90;;
35424;SDS011;21537;48.226;16.400;2022-10-31T17:53:48;60.13;;;27.55;;
35424;SDS011;21537;48.226;16.400;2022-10-31T17:56:27;67.57;;;29.25;;
35424;SDS011;21537;48.226;16.400;2022-10-31T17:58:58;55.22;;;25.73;;
35424;SDS011;21537;48.226;16.400;2022-10-31T18:01:52;56.53;;;25.15;;
35424;SDS011;21537;48.226;16.400;2022-10-31T18:04:22;61.00;;;26.25;;
35424;SDS011;21537;48.226;16.400;2022-10-31T18:06:49;55.20;;;24.98;;